createdAt,value
2022-09-10T00:02:13.063Z,11.50
2022-09-10T00:04:40.163Z,13.50
2022-09-10T00:07:07.036Z,15.17
2022-09-10T00:09:33.881Z,11.67
2022-09-10T00:12:00.779Z,14.27
2022-09-10T00:14:27.578Z,14.23
2022-09-10T00:16:54.918Z,16.07
2022-09-10T00:19:25.172Z,9.00
2022-09-10T00:21:52.181Z,11.30
2022-09-10T00:24:18.921Z,9.80
2022-09-10T00:26:45.789Z,10.77
2022-09-10T00:29:15.149Z,13.27
2022-09-10T00:31:42.604Z,13.73
2022-09-10T00:34:12.227Z,10.80
2022-09-10T00:36:41.500Z,15.67
2022-09-10T00:39:12.137Z,12.33
2022-09-10T00:41:40.862Z,12.07
2022-09-10T00:44:27.411Z,16.27
2022-09-10T00:46:56.256Z,13.47
2022-09-10T00:49:32.327Z,18.03
2022-09-10T00:52:00.091Z,16.83
2022-09-10T00:54:28.934Z,13.00
2022-09-10T00:56:58.620Z,15.50
2022-09-10T00:59:26.818Z,15.70
2022-09-10T01:01:55.578Z,14.10
2022-09-10T01:04:22.701Z,16.23
2022-09-10T01:06:52.251Z,16.77
2022-09-10T01:09:21.358Z,13.40
2022-09-10T01:11:57.107Z,19.63
2022-09-10T01:15:05.753Z,16.90
2022-09-10T01:17:54.342Z,17.70
2022-09-10T01:21:00.035Z,18.40
2022-09-10T01:23:50.770Z,19.57
2022-09-10T01:26:27.230Z,22.90
2022-09-10T01:29:02.883Z,26.37
2022-09-10T01:31:39.679Z,22.20
2022-09-10T01:34:12.122Z,16.53
2022-09-10T01:36:50.877Z,20.97
2022-09-10T01:39:19.813Z,16.57
2022-09-10T01:41:48.320Z,21.47
2022-09-10T01:44:42.961Z,18.93
2022-09-10T01:47:41.367Z,15.63
2022-09-10T01:50:45.939Z,19.33
2022-09-10T01:53:33.343Z,18.20
2022-09-10T01:56:35.504Z,18.63
2022-09-10T01:59:23.258Z,17.27
2022-09-10T02:01:55.539Z,18.23
2022-09-10T02:04:22.776Z,14.83
2022-09-10T02:06:51.326Z,18.57
2022-09-10T02:09:22.307Z,22.50
2022-09-10T02:11:56.157Z,19.53
2022-09-10T02:14:23.411Z,23.03
2022-09-10T02:16:58.733Z,19.57
2022-09-10T02:19:26.958Z,18.13
2022-09-10T02:21:56.200Z,21.73
2022-09-10T02:24:23.091Z,17.23
2022-09-10T02:26:50.226Z,22.63
2022-09-10T02:29:22.976Z,18.57
2022-09-10T02:31:56.932Z,18.17
2022-09-10T02:34:24.644Z,18.23
2022-09-10T02:36:51.424Z,19.27
2022-09-10T02:39:20.944Z,19.37
2022-09-10T02:41:51.698Z,17.37
2022-09-10T02:44:18.400Z,18.87
2022-09-10T02:46:45.200Z,23.17
2022-09-10T02:49:11.871Z,22.90
2022-09-10T02:51:38.884Z,21.77
2022-09-10T02:54:08.138Z,19.73
2022-09-10T02:56:34.975Z,20.70
2022-09-10T02:59:01.701Z,21.93
2022-09-10T03:01:28.663Z,21.03
2022-09-10T03:03:59.298Z,22.13
2022-09-10T03:06:27.319Z,23.47
2022-09-10T03:08:55.499Z,17.10
2022-09-10T03:11:25.315Z,24.37
2022-09-10T03:13:52.149Z,21.63
2022-09-10T03:16:19.980Z,21.43
2022-09-10T03:18:47.058Z,22.80
2022-09-10T03:21:20.273Z,20.20
2022-09-10T03:23:49.580Z,26.10
2022-09-10T03:26:17.935Z,24.27
2022-09-10T03:28:45.354Z,24.13
2022-09-10T03:31:13.747Z,21.33
2022-09-10T03:33:43.537Z,23.10
2022-09-10T03:36:15.572Z,20.60
2022-09-10T03:38:45.758Z,21.07
2022-09-10T03:41:12.599Z,20.37
2022-09-10T03:43:39.477Z,22.33
2022-09-10T03:46:06.416Z,20.57
2022-09-10T03:48:33.313Z,21.63
2022-09-10T03:51:00.138Z,22.00
2022-09-10T03:53:27.044Z,24.47
2022-09-10T03:55:55.699Z,19.80
2022-09-10T03:58:22.542Z,20.10
2022-09-10T04:00:49.362Z,22.90
2022-09-10T04:03:16.153Z,23.73
2022-09-10T04:05:45.902Z,24.53
2022-09-10T04:08:14.031Z,25.37
2022-09-10T04:10:41.715Z,24.87
2022-09-10T04:13:09.380Z,22.83
2022-09-10T04:15:39.470Z,28.27
2022-09-10T04:18:07.107Z,22.63
2022-09-10T04:20:34.919Z,25.57
2022-09-10T04:23:03.001Z,26.80
2022-09-10T04:25:29.727Z,23.63
2022-09-10T04:27:56.485Z,26.57
2022-09-10T04:30:23.322Z,23.23
2022-09-10T04:32:53.301Z,22.40
2022-09-10T04:35:20.426Z,21.07
2022-09-10T04:37:47.370Z,27.40
2022-09-10T04:40:14.106Z,24.10
2022-09-10T04:42:40.879Z,24.20
2022-09-10T04:45:08.105Z,28.53
2022-09-10T04:47:34.811Z,24.87
2022-09-10T04:50:02.015Z,23.63
2022-09-10T04:52:28.987Z,24.93
2022-09-10T04:54:55.747Z,25.50
2022-09-10T04:57:22.574Z,25.70
2022-09-10T04:59:49.267Z,25.53
2022-09-10T05:02:18.925Z,24.63
2022-09-10T05:04:45.849Z,23.73
2022-09-10T05:07:15.729Z,27.77
2022-09-10T05:09:44.006Z,28.20
2022-09-10T05:12:10.831Z,24.23
2022-09-10T05:14:38.109Z,25.23
2022-09-10T05:17:05.607Z,22.73
2022-09-10T05:19:32.402Z,26.63
2022-09-10T05:21:59.138Z,28.83
2022-09-10T05:24:27.428Z,27.00
2022-09-10T05:26:54.506Z,27.27
2022-09-10T05:29:22.066Z,27.87
2022-09-10T05:31:48.926Z,26.77
2022-09-10T05:34:15.905Z,28.17
2022-09-10T05:36:42.670Z,26.53
2022-09-10T05:39:09.442Z,27.80
2022-09-10T05:41:37.327Z,26.27
2022-09-10T05:44:05.168Z,26.87
2022-09-10T05:46:33.309Z,24.97
2022-09-10T05:49:00.089Z,24.00
2022-09-10T05:51:31.174Z,24.90
2022-09-10T05:53:58.110Z,24.27
2022-09-10T05:56:25.778Z,30.80
2022-09-10T05:58:59.487Z,29.30
2022-09-10T06:01:30.893Z,27.73
2022-09-10T06:03:58.363Z,29.83
2022-09-10T06:06:28.331Z,25.27
2022-09-10T06:08:55.588Z,26.37
2022-09-10T06:11:23.028Z,30.37
2022-09-10T06:13:50.398Z,29.20
2022-09-10T06:16:17.682Z,30.00
2022-09-10T06:18:47.120Z,25.37
2022-09-10T06:21:16.488Z,26.50
2022-09-10T06:23:44.341Z,26.60
2022-09-10T06:26:14.092Z,24.97
2022-09-10T06:28:41.410Z,25.70
2022-09-10T06:31:10.950Z,28.13
2022-09-10T06:33:37.915Z,24.93
2022-09-10T06:36:04.903Z,25.27
2022-09-10T06:38:36.997Z,24.03
2022-09-10T06:41:06.339Z,23.83
2022-09-10T06:43:37.737Z,24.17
2022-09-10T06:46:32.326Z,21.73
2022-09-10T06:49:02.859Z,28.33
2022-09-10T06:51:30.672Z,24.27
2022-09-10T06:54:02.742Z,26.57
2022-09-10T06:56:30.112Z,20.87
2022-09-10T06:59:02.471Z,27.87
2022-09-10T07:01:29.678Z,21.83
2022-09-10T07:04:01.336Z,21.00
2022-09-10T07:06:34.737Z,21.77
2022-09-10T07:09:01.860Z,21.80
2022-09-10T07:11:30.425Z,25.00
2022-09-10T07:13:57.242Z,22.27
2022-09-10T07:16:30.658Z,23.60
2022-09-10T07:19:02.015Z,22.63
2022-09-10T07:21:31.960Z,22.80
2022-09-10T07:24:01.273Z,22.97
2022-09-10T07:26:28.738Z,20.70
2022-09-10T07:28:56.392Z,23.47
2022-09-10T07:31:30.228Z,23.30
2022-09-10T07:33:57.906Z,20.23
2022-09-10T07:36:25.103Z,21.63
2022-09-10T07:38:54.462Z,22.57
2022-09-10T07:41:21.218Z,21.60
2022-09-10T07:43:49.316Z,23.07
2022-09-10T07:46:20.395Z,20.20
2022-09-10T07:48:58.337Z,21.27
2022-09-10T07:51:26.601Z,21.00
2022-09-10T07:53:55.317Z,23.67
2022-09-10T07:56:25.794Z,20.37
2022-09-10T07:58:54.053Z,20.77
2022-09-10T08:01:21.028Z,20.07
2022-09-10T08:03:47.954Z,19.63
2022-09-10T08:06:15.897Z,21.83
2022-09-10T08:08:43.363Z,16.90
2022-09-10T08:11:18.031Z,18.63
2022-09-10T08:13:50.060Z,16.27
2022-09-10T08:16:19.636Z,21.23
2022-09-10T08:18:47.777Z,15.50
2022-09-10T08:21:15.450Z,15.77
2022-09-10T08:23:43.891Z,15.80
2022-09-10T08:26:10.652Z,12.17
2022-09-10T08:28:38.090Z,17.73
2022-09-10T08:31:11.602Z,13.23
2022-09-10T08:33:39.759Z,12.47
2022-09-10T08:36:10.251Z,10.87
2022-09-10T08:38:42.000Z,14.20
2022-09-10T08:41:46.873Z,11.40
2022-09-10T08:44:23.347Z,10.90
2022-09-10T08:47:00.132Z,8.93
2022-09-10T08:49:51.366Z,10.70
2022-09-10T08:52:31.213Z,10.83
2022-09-10T08:55:19.204Z,13.30
2022-09-10T08:57:58.731Z,10.07
2022-09-10T09:00:29.858Z,9.67
2022-09-10T09:03:05.915Z,7.73
2022-09-10T09:05:58.076Z,9.60
2022-09-10T09:08:28.283Z,9.23
2022-09-10T09:11:20.148Z,7.60
2022-09-10T09:14:07.196Z,7.13
2022-09-10T09:17:17.922Z,9.13
2022-09-10T09:20:08.730Z,7.43
2022-09-10T09:22:53.437Z,9.87
2022-09-10T09:25:38.044Z,10.90
2022-09-10T09:28:15.071Z,10.10
2022-09-10T09:30:49.537Z,8.77
2022-09-10T09:33:21.100Z,8.67
2022-09-10T09:36:00.439Z,7.63
2022-09-10T09:38:37.307Z,9.03
2022-09-10T09:41:32.033Z,9.67
2022-09-10T09:44:25.932Z,10.07
2022-09-10T09:46:56.641Z,9.60
2022-09-10T09:49:24.239Z,7.63
2022-09-10T09:51:53.060Z,8.40
2022-09-10T09:55:09.942Z,9.67
2022-09-10T09:57:20.612Z,8.23
2022-09-10T10:00:30.417Z,6.37
2022-09-10T10:03:05.712Z,7.43
2022-09-10T10:05:32.477Z,4.93
2022-09-10T10:08:02.286Z,6.03
2022-09-10T10:10:29.287Z,4.37
2022-09-10T10:12:56.510Z,10.00
2022-09-10T10:15:42.080Z,4.73
2022-09-10T10:18:26.740Z,7.80
2022-09-10T10:21:20.092Z,3.83
2022-09-10T10:23:47.577Z,10.03
2022-09-10T10:26:20.439Z,7.00
2022-09-10T10:29:16.335Z,6.83
2022-09-10T10:31:45.955Z,5.23
2022-09-10T10:34:15.595Z,2.50
2022-09-10T10:36:45.331Z,5.40
2022-09-10T10:39:27.021Z,3.43
2022-09-10T10:42:15.592Z,7.67
2022-09-10T10:44:59.695Z,4.40
2022-09-10T10:47:46.856Z,4.67
2022-09-10T10:50:16.441Z,6.83
2022-09-10T10:53:18.078Z,6.50
2022-09-10T10:56:14.770Z,10.20
2022-09-10T10:59:06.465Z,12.70
2022-09-10T11:01:41.543Z,12.87
2022-09-10T11:04:34.459Z,15.57
2022-09-10T11:07:14.118Z,14.97
2022-09-10T11:09:55.020Z,15.57
2022-09-10T11:12:34.808Z,16.97
2022-09-10T11:15:19.648Z,17.63
2022-09-10T11:17:51.827Z,18.53
2022-09-10T11:20:32.849Z,16.03
2022-09-10T11:23:18.411Z,19.40
2022-09-10T11:26:01.114Z,20.70
2022-09-10T11:28:57.269Z,18.53
2022-09-10T11:31:33.514Z,18.17
2022-09-10T11:34:05.656Z,17.97
2022-09-10T11:37:05.521Z,17.30
2022-09-10T11:39:38.402Z,13.80
2022-09-10T11:42:42.756Z,14.67
2022-09-10T11:45:46.899Z,11.67
2022-09-10T11:48:24.597Z,10.13
2022-09-10T11:51:01.935Z,12.10
2022-09-10T11:53:30.421Z,9.50
2022-09-10T11:56:23.132Z,8.70
2022-09-10T11:59:11.441Z,9.70
2022-09-10T12:02:14.679Z,8.73
2022-09-10T12:04:53.456Z,6.70
2022-09-10T12:07:49.816Z,8.43
2022-09-10T12:10:25.042Z,7.57
2022-09-10T12:12:53.320Z,5.07
2022-09-10T12:15:25.624Z,6.40
2022-09-10T12:18:16.641Z,4.20
2022-09-10T12:21:02.534Z,3.13
2022-09-10T12:23:36.526Z,3.13
2022-09-10T12:26:11.030Z,5.17
2022-09-10T12:28:43.621Z,5.63
2022-09-10T12:31:15.220Z,3.97
2022-09-10T12:33:44.936Z,6.03
2022-09-10T12:36:35.524Z,5.30
2022-09-10T12:39:25.248Z,3.50
2022-09-10T12:41:54.613Z,4.82
2022-09-10T12:44:36.569Z,4.70
2022-09-10T12:47:15.244Z,5.38
2022-09-10T12:49:57.360Z,4.90
2022-09-10T12:52:31.619Z,6.45
2022-09-10T12:55:19.496Z,5.28
2022-09-10T12:58:14.656Z,6.15
2022-09-10T13:00:54.616Z,6.20
2022-09-10T13:03:23.598Z,5.10
2022-09-10T13:05:56.242Z,5.25
2022-09-10T13:08:28.032Z,5.78
2022-09-10T13:11:01.246Z,6.13
2022-09-10T13:14:04.001Z,5.20
2022-09-10T13:16:30.748Z,4.03
2022-09-10T13:19:12.609Z,4.15
2022-09-10T13:21:45.320Z,5.38
2022-09-10T13:24:34.426Z,6.00
2022-09-10T13:27:13.281Z,5.03
2022-09-10T13:30:05.634Z,5.53
2022-09-10T13:32:40.998Z,6.40
2022-09-10T13:35:52.696Z,6.90
2022-09-10T13:38:27.171Z,5.30
2022-09-10T13:41:37.042Z,4.53
2022-09-10T13:44:03.783Z,2.90
2022-09-10T13:46:38.268Z,3.92
2022-09-10T13:49:13.808Z,4.10
2022-09-10T13:51:40.824Z,4.80
2022-09-10T13:54:33.334Z,3.35
2022-09-10T13:57:16.248Z,2.13
2022-09-10T13:59:44.544Z,1.98
2022-09-10T14:02:11.317Z,2.03
2022-09-10T14:04:44.893Z,3.55
2022-09-10T14:07:16.961Z,3.20
2022-09-10T14:09:46.646Z,2.85
2022-09-10T14:12:18.413Z,3.33
2022-09-10T14:14:51.113Z,2.22
2022-09-10T14:17:27.441Z,3.25
2022-09-10T14:20:03.023Z,2.60
2022-09-10T14:22:31.875Z,2.85
2022-09-10T14:25:01.461Z,2.72
2022-09-10T14:27:33.554Z,4.90
2022-09-10T14:30:21.172Z,2.30
2022-09-10T14:32:48.378Z,4.85
2022-09-10T14:35:44.400Z,3.10
2022-09-10T14:38:34.272Z,3.50
2022-09-10T14:41:17.038Z,3.92
2022-09-10T14:43:43.767Z,4.57
2022-09-10T14:46:50.907Z,3.88
2022-09-10T14:49:23.643Z,3.75
2022-09-10T14:51:50.420Z,4.68
2022-09-10T14:54:17.360Z,3.50
2022-09-10T14:56:47.408Z,3.13
2022-09-10T14:59:31.015Z,3.42
2022-09-10T15:02:17.285Z,6.13
2022-09-10T15:04:44.027Z,4.68
2022-09-10T15:07:11.879Z,5.30
2022-09-10T15:09:40.851Z,6.25
2022-09-10T15:12:09.644Z,6.15
2022-09-10T15:14:36.886Z,5.10
2022-09-10T15:17:04.080Z,7.13
2022-09-10T15:19:31.909Z,3.95
2022-09-10T15:21:59.699Z,4.65
2022-09-10T15:24:28.358Z,5.40
2022-09-10T15:26:56.434Z,4.75
2022-09-10T15:29:23.747Z,4.28
2022-09-10T15:31:51.347Z,6.72
2022-09-10T15:34:19.321Z,3.47
2022-09-10T15:36:47.008Z,5.18
2022-09-10T15:39:13.872Z,4.53
2022-09-10T15:41:43.430Z,3.35
2022-09-10T15:44:11.050Z,3.78
2022-09-10T15:46:42.072Z,3.05
2022-09-10T15:49:09.035Z,3.70
2022-09-10T15:51:35.773Z,5.63
2022-09-10T15:54:05.354Z,5.70
2022-09-10T15:56:32.675Z,4.15
2022-09-10T15:59:02.135Z,6.47
2022-09-10T16:01:29.172Z,4.83
2022-09-10T16:03:58.179Z,5.40
2022-09-10T16:06:31.523Z,3.83
2022-09-10T16:09:03.640Z,5.50
2022-09-10T16:11:32.658Z,6.80
2022-09-10T16:14:04.691Z,3.07
2022-09-10T16:16:33.197Z,4.82
2022-09-10T16:19:00.878Z,6.15
2022-09-10T16:21:33.391Z,5.95
2022-09-10T16:24:01.167Z,6.88
2022-09-10T16:26:31.088Z,6.95
2022-09-10T16:29:02.526Z,7.37
2022-09-10T16:31:32.052Z,8.65
2022-09-10T16:34:02.490Z,8.68
2022-09-10T16:36:31.290Z,6.00
2022-09-10T16:39:01.624Z,3.90
2022-09-10T16:41:29.472Z,5.00
2022-09-10T16:43:59.778Z,6.30
2022-09-10T16:46:27.902Z,4.13
2022-09-10T16:48:56.206Z,3.17
2022-09-10T16:51:24.765Z,3.13
2022-09-10T16:54:03.652Z,2.63
2022-09-10T16:56:35.663Z,1.83
2022-09-10T16:59:02.624Z,3.63
2022-09-10T17:01:29.562Z,2.87
2022-09-10T17:03:56.509Z,2.60
2022-09-10T17:06:25.683Z,3.70
2022-09-10T17:08:58.436Z,3.23
2022-09-10T17:11:27.209Z,3.90
2022-09-10T17:13:54.678Z,4.40
2022-09-10T17:16:21.394Z,4.53
2022-09-10T17:18:58.377Z,3.50
2022-09-10T17:21:32.412Z,2.37
2022-09-10T17:24:09.631Z,4.03
2022-09-10T17:26:37.441Z,4.30
2022-09-10T17:29:08.555Z,4.50
2022-09-10T17:31:35.566Z,3.97
2022-09-10T17:34:03.798Z,3.33
2022-09-10T17:36:30.827Z,4.50
2022-09-10T17:38:59.256Z,4.80
2022-09-10T17:41:28.744Z,4.83
2022-09-10T17:43:57.854Z,5.37
2022-09-10T17:46:24.884Z,3.90
2022-09-10T17:48:53.567Z,4.57
2022-09-10T17:51:26.363Z,5.93
2022-09-10T17:53:55.261Z,6.83
2022-09-10T17:56:24.430Z,5.00
2022-09-10T17:58:57.527Z,6.13
2022-09-10T18:01:27.136Z,6.50
2022-09-10T18:03:57.779Z,5.43
2022-09-10T18:06:25.559Z,7.13
2022-09-10T18:09:00.845Z,6.33
2022-09-10T18:11:30.720Z,7.73
2022-09-10T18:13:59.012Z,7.40
2022-09-10T18:16:29.131Z,7.37
2022-09-10T18:19:00.080Z,7.60
2022-09-10T18:21:34.779Z,9.27
2022-09-10T18:24:19.010Z,8.03
2022-09-10T18:26:48.095Z,7.17
2022-09-10T18:29:23.468Z,6.07
2022-09-10T18:31:53.320Z,8.70
2022-09-10T18:34:26.955Z,8.03
2022-09-10T18:36:57.642Z,9.47
2022-09-10T18:39:27.110Z,8.27
2022-09-10T18:41:54.754Z,8.93
2022-09-10T18:44:26.013Z,9.50
2022-09-10T18:46:53.555Z,9.10
2022-09-10T18:49:24.360Z,8.33
2022-09-10T18:51:52.268Z,11.03
2022-09-10T18:54:20.290Z,8.77
2022-09-10T18:56:48.679Z,9.00
2022-09-10T18:59:20.136Z,9.40
2022-09-10T19:01:47.796Z,8.87
2022-09-10T19:04:18.183Z,7.60
2022-09-10T19:06:46.873Z,8.93
2022-09-10T19:09:21.763Z,7.50
2022-09-10T19:11:50.199Z,8.80
2022-09-10T19:14:26.264Z,9.93
2022-09-10T19:16:54.398Z,10.43
2022-09-10T19:19:23.537Z,7.43
2022-09-10T19:21:53.105Z,7.23
2022-09-10T19:24:32.944Z,6.73
2022-09-10T19:27:04.931Z,6.80
2022-09-10T19:29:34.871Z,6.80
2022-09-10T19:32:02.361Z,5.60
2022-09-10T19:34:30.222Z,7.37
2022-09-10T19:36:56.864Z,7.80
2022-09-10T19:39:23.595Z,8.00
2022-09-10T19:41:50.383Z,7.03
2022-09-10T19:44:18.209Z,11.40
2022-09-10T19:46:45.816Z,8.43
2022-09-10T19:49:16.862Z,6.93
2022-09-10T19:51:44.034Z,6.27
2022-09-10T19:54:12.071Z,10.03
2022-09-10T19:56:42.251Z,7.23
2022-09-10T19:59:09.851Z,11.87
2022-09-10T20:01:40.060Z,7.50
2022-09-10T20:04:09.107Z,8.57
2022-09-10T20:06:36.873Z,10.63
2022-09-10T20:09:06.156Z,14.00
2022-09-10T20:11:35.306Z,7.90
2022-09-10T20:14:10.372Z,8.20
2022-09-10T20:16:39.144Z,10.53
2022-09-10T20:19:07.104Z,9.30
2022-09-10T20:21:35.355Z,9.03
2022-09-10T20:24:02.203Z,10.43
2022-09-10T20:26:31.667Z,10.77
2022-09-10T20:29:01.295Z,9.03
2022-09-10T20:31:31.581Z,9.10
2022-09-10T20:34:01.569Z,11.97
2022-09-10T20:36:28.906Z,14.07
2022-09-10T20:38:57.374Z,12.17
2022-09-10T20:41:30.109Z,11.53
2022-09-10T20:43:59.262Z,11.30
2022-09-10T20:46:28.796Z,13.10
2022-09-10T20:49:02.834Z,15.07
2022-09-10T20:51:33.112Z,10.90
2022-09-10T20:53:59.946Z,8.50
2022-09-10T20:56:29.680Z,13.73
2022-09-10T20:58:56.821Z,16.20
2022-09-10T21:01:28.041Z,10.47
2022-09-10T21:04:00.608Z,14.67
2022-09-10T21:06:30.116Z,13.67
2022-09-10T21:08:57.627Z,16.67
2022-09-10T21:11:27.354Z,12.27
2022-09-10T21:13:56.004Z,14.67
2022-09-10T21:16:30.300Z,15.87
2022-09-10T21:19:05.756Z,14.37
2022-09-10T21:21:34.635Z,15.97
2022-09-10T21:24:05.706Z,17.57
2022-09-10T21:26:39.185Z,16.07
2022-09-10T21:29:10.068Z,13.93
2022-09-10T21:31:36.919Z,20.10
2022-09-10T21:34:06.635Z,14.93
2022-09-10T21:36:34.966Z,16.00
2022-09-10T21:39:03.677Z,17.17
2022-09-10T21:41:39.542Z,14.60
2022-09-10T21:44:16.169Z,13.37
2022-09-10T21:46:44.482Z,16.27
2022-09-10T21:49:12.303Z,13.80
2022-09-10T21:51:39.986Z,17.40
2022-09-10T21:54:06.926Z,17.23
2022-09-10T21:56:33.683Z,18.23
2022-09-10T21:59:01.114Z,16.53
2022-09-10T22:01:31.894Z,12.77
2022-09-10T22:04:00.660Z,16.43
2022-09-10T22:06:29.887Z,19.87
2022-09-10T22:09:06.067Z,15.13
2022-09-10T22:11:36.385Z,13.80
2022-09-10T22:14:06.446Z,17.67
2022-09-10T22:16:35.188Z,19.10
2022-09-10T22:19:05.952Z,13.17
2022-09-10T22:21:32.788Z,21.43
2022-09-10T22:23:59.519Z,21.23
2022-09-10T22:26:30.427Z,20.87
2022-09-10T22:28:59.618Z,17.97
2022-09-10T22:31:33.876Z,16.60
2022-09-10T22:34:06.641Z,21.60
2022-09-10T22:36:35.931Z,17.27
2022-09-10T22:39:14.772Z,19.83
2022-09-10T22:41:42.417Z,19.90
2022-09-10T22:44:09.737Z,19.53
2022-09-10T22:46:40.995Z,23.23
2022-09-10T22:49:07.993Z,24.37
2022-09-10T22:51:39.310Z,20.07
2022-09-10T22:54:08.004Z,21.47
2022-09-10T22:56:37.841Z,21.53
2022-09-10T22:59:05.398Z,17.47
2022-09-10T23:01:37.655Z,20.70
2022-09-10T23:04:06.202Z,18.60
2022-09-10T23:06:34.788Z,21.60
2022-09-10T23:09:13.895Z,25.17
2022-09-10T23:11:41.778Z,24.10
2022-09-10T23:14:15.599Z,18.03
2022-09-10T23:16:51.833Z,20.23
2022-09-10T23:19:24.056Z,22.47
2022-09-10T23:21:55.063Z,23.83
2022-09-10T23:24:26.492Z,20.27
2022-09-10T23:26:55.783Z,23.27
2022-09-10T23:29:23.355Z,24.63
2022-09-10T23:31:52.888Z,23.43
2022-09-10T23:34:20.507Z,24.77
2022-09-10T23:36:49.252Z,25.27
2022-09-10T23:39:24.709Z,24.27
2022-09-10T23:41:56.963Z,25.90
2022-09-10T23:44:24.279Z,31.60
2022-09-10T23:46:51.380Z,27.17
2022-09-10T23:49:24.333Z,28.07
2022-09-10T23:51:51.605Z,25.93
2022-09-10T23:54:18.476Z,29.73
2022-09-10T23:56:45.407Z,29.77
2022-09-10T23:59:12.240Z,25.67
